createdAt,value
2022-11-04T00:04:35.950Z,83.46
2022-11-04T00:09:58.284Z,83.26
2022-11-04T00:15:38.697Z,83.22
2022-11-04T00:21:20.424Z,83.24
2022-11-04T00:27:00.284Z,83.06
2022-11-04T00:32:41.092Z,82.84
2022-11-04T00:38:03.334Z,82.52
2022-11-04T00:43:25.499Z,82.45
2022-11-04T00:48:47.698Z,82.39
2022-11-04T00:54:09.943Z,82.36
2022-11-04T00:59:32.372Z,82.44
2022-11-04T01:04:54.922Z,82.46
2022-11-04T01:10:18.107Z,82.57
2022-11-04T01:15:40.269Z,82.60
2022-11-04T01:21:04.169Z,82.75
2022-11-04T01:26:31.707Z,82.67
2022-11-04T01:31:53.931Z,82.94
2022-11-04T01:37:16.188Z,82.94
2022-11-04T01:42:40.224Z,82.84
2022-11-04T01:48:10.916Z,82.62
2022-11-04T01:53:40.884Z,82.34
2022-11-04T01:59:06.727Z,81.94
2022-11-04T02:04:30.297Z,81.94
2022-11-04T02:09:54.355Z,81.87
2022-11-04T02:15:18.267Z,81.94
2022-11-04T02:20:57.220Z,82.12
2022-11-04T02:26:57.188Z,82.28
2022-11-04T02:32:27.624Z,82.72
2022-11-04T02:38:12.208Z,83.09
2022-11-04T02:43:50.876Z,83.33
2022-11-04T02:49:30.320Z,83.44
2022-11-04T02:55:21.796Z,83.85
2022-11-04T03:00:45.189Z,83.58
2022-11-04T03:06:11.172Z,83.44
2022-11-04T03:11:36.521Z,83.35
2022-11-04T03:17:04.319Z,83.16
2022-11-04T03:22:30.457Z,83.30
2022-11-04T03:28:11.003Z,83.59
2022-11-04T03:33:55.675Z,83.69
2022-11-04T03:39:18.100Z,83.37
2022-11-04T03:44:42.246Z,83.05
2022-11-04T03:50:17.805Z,82.79
2022-11-04T03:55:47.137Z,82.28
2022-11-04T04:01:19.829Z,81.76
2022-11-04T04:06:48.522Z,81.47
2022-11-04T04:12:30.612Z,81.40
2022-11-04T04:18:06.142Z,81.40
2022-11-04T04:23:50.701Z,81.20
2022-11-04T04:29:15.912Z,80.88
2022-11-04T04:34:41.514Z,80.80
2022-11-04T04:40:27.270Z,80.73
2022-11-04T04:45:54.427Z,80.80
2022-11-04T04:51:16.969Z,81.35
2022-11-04T04:56:39.153Z,82.39
2022-11-04T05:02:01.400Z,83.00
2022-11-04T05:07:24.017Z,83.55
2022-11-04T05:13:06.541Z,83.98
2022-11-04T05:18:29.205Z,84.27
2022-11-04T05:23:51.644Z,84.88
2022-11-04T05:34:37.352Z,85.38
2022-11-04T05:39:59.610Z,85.47
2022-11-04T05:45:22.548Z,85.39
2022-11-04T05:50:47.903Z,85.02
2022-11-04T05:56:10.176Z,85.25
2022-11-04T06:01:45.814Z,85.41
2022-11-04T06:07:08.390Z,86.25
2022-11-04T06:12:32.302Z,86.94
2022-11-04T06:17:56.537Z,87.54
2022-11-04T06:23:18.765Z,87.78
2022-11-04T06:28:41.048Z,88.06
2022-11-04T06:34:03.981Z,88.43
2022-11-04T06:39:26.225Z,88.67
2022-11-04T06:44:48.485Z,88.18
2022-11-04T06:50:11.427Z,86.93
2022-11-04T06:55:34.216Z,85.83
2022-11-04T07:00:59.402Z,84.97
2022-11-04T07:06:25.953Z,84.23
2022-11-04T07:11:50.257Z,83.59
2022-11-04T07:17:12.440Z,83.17
2022-11-04T07:22:34.607Z,82.55
2022-11-04T07:28:01.066Z,82.23
2022-11-04T07:33:21.437Z,82.13
2022-11-04T07:38:44.053Z,81.67
2022-11-04T07:44:11.458Z,81.27
2022-11-04T07:49:34.039Z,80.96
2022-11-04T07:54:56.675Z,80.77
2022-11-04T08:00:19.827Z,80.48
2022-11-04T08:05:42.024Z,79.93
2022-11-04T08:11:06.494Z,79.70
2022-11-04T08:16:34.708Z,79.61
2022-11-04T08:21:57.068Z,79.57
2022-11-04T08:27:20.040Z,79.41
2022-11-04T08:32:42.224Z,79.01
2022-11-04T08:38:04.562Z,78.68
2022-11-04T08:43:28.001Z,78.46
2022-11-04T08:48:51.901Z,78.21
2022-11-04T08:54:14.133Z,78.08
2022-11-04T08:59:36.871Z,78.07
2022-11-04T09:04:59.072Z,77.92
2022-11-04T09:10:21.725Z,77.93
2022-11-04T09:15:44.275Z,77.72
2022-11-04T09:21:06.991Z,77.39
2022-11-04T09:26:31.109Z,77.12
2022-11-04T09:31:53.820Z,75.62
2022-11-04T09:37:16.656Z,73.18
2022-11-04T09:42:52.579Z,71.65
2022-11-04T09:48:22.138Z,70.47
2022-11-04T09:53:56.712Z,71.07
2022-11-04T09:59:23.767Z,71.18
2022-11-04T10:05:10.678Z,72.09
2022-11-04T10:10:45.330Z,72.65
2022-11-04T10:16:24.478Z,73.00
2022-11-04T10:22:09.062Z,73.27
2022-11-04T10:27:41.306Z,73.73
2022-11-04T10:33:42.151Z,74.25
2022-11-04T10:39:05.834Z,74.20
2022-11-04T10:44:32.902Z,74.61
2022-11-04T10:50:27.626Z,74.76
2022-11-04T10:55:55.832Z,74.94
2022-11-04T11:01:46.729Z,75.26
2022-11-04T11:07:16.710Z,75.59
2022-11-04T11:12:51.072Z,74.85
2022-11-04T11:18:25.007Z,74.63
2022-11-04T11:23:58.846Z,74.80
2022-11-04T11:29:24.307Z,74.67
2022-11-04T11:34:54.117Z,74.38
2022-11-04T11:40:18.725Z,74.85
2022-11-04T11:45:42.142Z,75.26
2022-11-04T11:51:09.662Z,75.54
2022-11-04T11:56:59.129Z,75.83
2022-11-04T12:02:10.229Z,76.21
2022-11-04T12:13:45.742Z,77.02
2022-11-04T12:19:47.333Z,77.40
2022-11-04T12:25:48.962Z,77.73
2022-11-04T12:31:30.910Z,77.79
2022-11-04T12:37:04.951Z,77.67
2022-11-04T12:42:47.116Z,77.29
2022-11-04T12:48:17.361Z,77.09
2022-11-04T12:54:15.867Z,77.21
2022-11-04T13:00:10.491Z,77.54
2022-11-04T13:05:37.682Z,78.08
2022-11-04T13:11:29.121Z,78.16
2022-11-04T13:16:55.657Z,78.48
2022-11-04T13:22:23.406Z,78.75
2022-11-04T13:27:52.546Z,78.76
2022-11-04T13:33:57.596Z,78.77
2022-11-04T13:39:30.353Z,78.83
2022-11-04T13:45:01.988Z,78.89
2022-11-04T13:56:31.551Z,78.47
2022-11-04T14:01:37.238Z,79.33
2022-11-04T14:07:17.429Z,79.92
2022-11-04T14:12:47.483Z,80.58
2022-11-04T14:18:13.076Z,81.14
2022-11-04T14:23:36.893Z,81.59
2022-11-04T14:29:16.238Z,81.88
2022-11-04T14:34:45.067Z,82.03
2022-11-04T14:40:12.848Z,82.11
2022-11-04T14:45:40.644Z,82.00
2022-11-04T14:51:06.162Z,81.97
2022-11-04T14:56:34.354Z,81.98
2022-11-04T15:01:59.342Z,81.93
2022-11-04T15:07:29.548Z,81.99
2022-11-04T15:12:55.084Z,81.86
2022-11-04T15:18:29.507Z,81.90
2022-11-04T15:24:08.754Z,82.09
2022-11-04T15:29:33.211Z,82.04
2022-11-04T15:34:56.829Z,81.99
2022-11-04T15:40:20.514Z,82.03
2022-11-04T15:45:58.378Z,82.17
2022-11-04T15:51:36.642Z,82.42
2022-11-04T15:57:03.482Z,82.90
2022-11-04T16:02:35.924Z,83.06
2022-11-04T16:08:26.903Z,83.44
2022-11-04T16:13:49.586Z,83.69
2022-11-04T16:19:20.185Z,84.14
2022-11-04T16:24:53.188Z,84.50
2022-11-04T16:30:23.338Z,84.76
2022-11-04T16:35:47.148Z,84.96
2022-11-04T16:41:09.949Z,85.13
2022-11-04T16:46:32.758Z,85.47
2022-11-04T16:51:56.285Z,85.54
2022-11-04T16:57:19.140Z,85.64
2022-11-04T17:02:47.842Z,85.96
2022-11-04T17:08:10.119Z,85.95
2022-11-04T17:13:37.696Z,85.75
2022-11-04T17:19:00.639Z,85.80
2022-11-04T17:24:23.067Z,85.94
2022-11-04T17:29:45.550Z,86.12
2022-11-04T17:35:07.923Z,86.10
2022-11-04T17:40:32.540Z,86.10
2022-11-04T17:45:56.538Z,86.07
2022-11-04T17:51:20.390Z,86.06
2022-11-04T17:56:49.218Z,86.00
2022-11-04T18:02:12.210Z,86.05
2022-11-04T18:07:35.257Z,86.15
2022-11-04T18:12:57.462Z,86.28
2022-11-04T18:18:19.907Z,86.33
2022-11-04T18:23:42.496Z,86.31
2022-11-04T18:29:05.519Z,86.33
2022-11-04T18:34:30.283Z,86.37
2022-11-04T18:39:52.505Z,86.37
2022-11-04T18:45:15.161Z,86.20
2022-11-04T18:50:38.217Z,86.04
2022-11-04T18:56:00.394Z,85.99
2022-11-04T19:01:36.587Z,85.92
2022-11-04T19:07:00.637Z,85.94
2022-11-04T19:12:41.307Z,85.84
2022-11-04T19:18:03.550Z,85.70
2022-11-04T19:23:25.759Z,85.48
2022-11-04T19:28:51.829Z,85.34
2022-11-04T19:34:16.495Z,85.23
2022-11-04T19:39:38.724Z,84.93
2022-11-04T19:45:00.997Z,84.70
2022-11-04T19:50:23.517Z,84.33
2022-11-04T19:55:45.981Z,83.99
2022-11-04T20:01:13.372Z,83.85
2022-11-04T20:06:36.572Z,84.01
2022-11-04T20:12:17.646Z,84.52
2022-11-04T20:17:40.535Z,85.99
2022-11-04T20:23:02.756Z,87.77
2022-11-04T20:28:24.932Z,89.44
2022-11-04T20:33:49.520Z,91.48
2022-11-04T20:39:19.296Z,93.64
2022-11-04T20:44:44.451Z,96.20
2022-11-04T20:50:06.756Z,99.32
2022-11-04T20:55:29.455Z,100.00
2022-11-04T21:00:51.937Z,100.00
2022-11-04T21:06:15.479Z,100.00
2022-11-04T21:11:39.996Z,100.00
2022-11-04T21:17:02.709Z,100.00
2022-11-04T21:22:25.104Z,100.00
2022-11-04T21:27:47.893Z,100.00
2022-11-04T21:33:10.296Z,100.00
2022-11-04T21:38:34.140Z,100.00
2022-11-04T21:43:58.550Z,100.00
2022-11-04T21:49:23.371Z,100.00
2022-11-04T21:54:45.735Z,100.00
2022-11-04T22:00:08.383Z,100.00
2022-11-04T22:05:30.717Z,100.00
2022-11-04T22:10:54.726Z,100.00
2022-11-04T22:16:31.620Z,100.00
2022-11-04T22:21:57.269Z,100.00
2022-11-04T22:27:19.506Z,100.00
2022-11-04T22:32:42.625Z,100.00
2022-11-04T22:38:04.821Z,100.00
2022-11-04T22:43:27.261Z,100.00
2022-11-04T22:48:50.130Z,100.00
2022-11-04T22:54:12.996Z,100.00
2022-11-04T22:59:35.269Z,100.00
2022-11-04T23:04:58.820Z,100.00
2022-11-04T23:10:39.624Z,100.00
2022-11-04T23:16:19.614Z,100.00
2022-11-04T23:21:59.423Z,100.00
2022-11-04T23:27:39.613Z,100.00
2022-11-04T23:33:04.151Z,100.00
2022-11-04T23:38:26.900Z,100.00
2022-11-04T23:43:50.522Z,100.00
2022-11-04T23:55:18.970Z,100.00
